sensor_id;sensor_type;location;lat;lon;timestamp;pressure;altitude;pressure_sealevel;temperature;humidity
19510;BME280;9896;42.486;26.506;2024-01-07T00:02:23;98689.72;;;11.67;100.00
19510;BME280;9896;42.486;26.506;2024-01-07T00:04:48;98701.41;;;11.73;100.00
19510;BME280;9896;42.486;26.506;2024-01-07T00:07:14;98691.38;;;11.68;100.00
19510;BME280;9896;42.486;26.506;2024-01-07T00:09:39;98709.41;;;11.84;100.00
19510;BME280;9896;42.486;26.506;2024-01-07T00:12:05;98689.38;;;11.75;100.00
19510;BME280;9896;42.486;26.506;2024-01-07T00:14:31;98698.06;;;11.82;100.00
19510;BME280;9896;42.486;26.506;2024-01-07T00:16:56;98698.31;;;11.81;100.00
19510;BME280;9896;42.486;26.506;2024-01-07T00:19:22;98689.44;;;11.80;100.00
19510;BME280;9896;42.486;26.506;2024-01-07T00:21:48;98683.03;;;11.98;100.00
19510;BME280;9896;42.486;26.506;2024-01-07T00:24:15;98679.59;;;12.02;100.00
19510;BME280;9896;42.486;26.506;2024-01-07T00:26:40;98677.56;;;12.09;100.00
19510;BME280;9896;42.486;26.506;2024-01-07T00:29:06;98685.84;;;12.08;100.00
19510;BME280;9896;42.486;26.506;2024-01-07T00:31:31;98689.28;;;12.03;100.00
19510;BME280;9896;42.486;26.506;2024-01-07T00:33:57;98678.94;;;11.95;100.00
19510;BME280;9896;42.486;26.506;2024-01-07T00:36:22;98688.72;;;11.85;100.00
19510;BME280;9896;42.486;26.506;2024-01-07T00:38:48;98678.13;;;11.78;100.00
19510;BME280;9896;42.486;26.506;2024-01-07T00:41:14;98684.13;;;11.69;100.00
19510;BME280;9896;42.486;26.506;2024-01-07T00:43:39;98680.53;;;11.63;100.00
19510;BME280;9896;42.486;26.506;2024-01-07T00:46:06;98683.63;;;11.55;100.00
19510;BME280;9896;42.486;26.506;2024-01-07T00:48:31;98673.19;;;11.58;100.00
19510;BME280;9896;42.486;26.506;2024-01-07T00:50:57;98663.13;;;11.49;100.00
19510;BME280;9896;42.486;26.506;2024-01-07T00:53:22;98669.38;;;11.54;100.00
19510;BME280;9896;42.486;26.506;2024-01-07T00:55:48;98661.59;;;11.53;100.00
19510;BME280;9896;42.486;26.506;2024-01-07T00:58:13;98652.72;;;11.52;100.00
19510;BME280;9896;42.486;26.506;2024-01-07T01:00:39;98656.34;;;11.46;100.00
19510;BME280;9896;42.486;26.506;2024-01-07T01:03:04;98647.31;;;11.36;100.00
19510;BME280;9896;42.486;26.506;2024-01-07T01:05:30;98628.53;;;11.36;100.00
19510;BME280;9896;42.486;26.506;2024-01-07T01:07:56;98631.72;;;11.33;100.00
19510;BME280;9896;42.486;26.506;2024-01-07T01:10:22;98627.72;;;11.35;100.00
19510;BME280;9896;42.486;26.506;2024-01-07T01:12:47;98621.31;;;11.36;100.00
19510;BME280;9896;42.486;26.506;2024-01-07T01:15:13;98616.91;;;11.47;100.00
19510;BME280;9896;42.486;26.506;2024-01-07T01:17:42;98623.50;;;11.56;100.00
19510;BME280;9896;42.486;26.506;2024-01-07T01:20:08;98613.09;;;11.59;100.00
19510;BME280;9896;42.486;26.506;2024-01-07T01:22:34;98613.41;;;11.63;100.00
19510;BME280;9896;42.486;26.506;2024-01-07T01:24:59;98597.63;;;11.50;100.00
19510;BME280;9896;42.486;26.506;2024-01-07T01:27:25;98594.94;;;11.50;100.00
19510;BME280;9896;42.486;26.506;2024-01-07T01:29:51;98593.25;;;11.44;100.00
19510;BME280;9896;42.486;26.506;2024-01-07T01:32:16;98575.28;;;11.44;100.00
19510;BME280;9896;42.486;26.506;2024-01-07T01:34:42;98584.78;;;11.35;100.00
19510;BME280;9896;42.486;26.506;2024-01-07T01:37:11;98571.13;;;11.37;100.00
19510;BME280;9896;42.486;26.506;2024-01-07T01:39:40;98567.63;;;11.36;100.00
19510;BME280;9896;42.486;26.506;2024-01-07T01:42:06;98573.47;;;11.33;100.00
19510;BME280;9896;42.486;26.506;2024-01-07T01:44:31;98572.28;;;11.41;100.00
19510;BME280;9896;42.486;26.506;2024-01-07T01:46:57;98567.63;;;11.36;100.00
19510;BME280;9896;42.486;26.506;2024-01-07T01:49:23;98556.63;;;11.38;100.00
19510;BME280;9896;42.486;26.506;2024-01-07T01:51:49;98553.84;;;11.49;100.00
19510;BME280;9896;42.486;26.506;2024-01-07T01:54:15;98556.41;;;11.56;100.00
19510;BME280;9896;42.486;26.506;2024-01-07T01:56:42;98549.78;;;11.63;100.00
19510;BME280;9896;42.486;26.506;2024-01-07T01:59:08;98540.31;;;11.73;100.00
19510;BME280;9896;42.486;26.506;2024-01-07T02:01:34;98546.53;;;11.78;100.00
19510;BME280;9896;42.486;26.506;2024-01-07T02:03:59;98546.38;;;11.85;100.00
19510;BME280;9896;42.486;26.506;2024-01-07T02:06:25;98541.31;;;11.88;100.00
19510;BME280;9896;42.486;26.506;2024-01-07T02:08:51;98530.56;;;11.88;100.00
19510;BME280;9896;42.486;26.506;2024-01-07T02:11:18;98524.47;;;11.93;100.00
19510;BME280;9896;42.486;26.506;2024-01-07T02:13:44;98514.22;;;11.90;100.00
19510;BME280;9896;42.486;26.506;2024-01-07T02:16:10;98508.97;;;12.00;100.00
19510;BME280;9896;42.486;26.506;2024-01-07T02:18:37;98510.72;;;12.11;100.00
19510;BME280;9896;42.486;26.506;2024-01-07T02:21:03;98507.47;;;12.09;100.00
19510;BME280;9896;42.486;26.506;2024-01-07T02:23:29;98512.16;;;11.97;100.00
19510;BME280;9896;42.486;26.506;2024-01-07T02:25:55;98524.38;;;11.88;100.00
19510;BME280;9896;42.486;26.506;2024-01-07T02:28:20;98508.56;;;11.70;100.00
19510;BME280;9896;42.486;26.506;2024-01-07T02:30:46;98508.00;;;11.51;100.00
19510;BME280;9896;42.486;26.506;2024-01-07T02:33:11;98499.41;;;11.32;100.00
19510;BME280;9896;42.486;26.506;2024-01-07T02:35:37;98480.44;;;11.22;100.00
19510;BME280;9896;42.486;26.506;2024-01-07T02:38:03;98465.81;;;11.13;100.00
19510;BME280;9896;42.486;26.506;2024-01-07T02:40:28;98435.34;;;11.02;100.00
19510;BME280;9896;42.486;26.506;2024-01-07T02:42:54;98429.09;;;10.97;100.00
19510;BME280;9896;42.486;26.506;2024-01-07T02:45:22;98425.53;;;10.91;100.00
19510;BME280;9896;42.486;26.506;2024-01-07T02:47:48;98430.00;;;10.86;100.00
19510;BME280;9896;42.486;26.506;2024-01-07T02:50:13;98420.59;;;10.83;100.00
19510;BME280;9896;42.486;26.506;2024-01-07T02:52:39;98429.50;;;10.89;100.00
19510;BME280;9896;42.486;26.506;2024-01-07T02:55:05;98435.84;;;10.99;100.00
19510;BME280;9896;42.486;26.506;2024-01-07T02:57:30;98408.53;;;11.02;100.00
19510;BME280;9896;42.486;26.506;2024-01-07T02:59:56;98403.41;;;11.01;100.00
19510;BME280;9896;42.486;26.506;2024-01-07T03:02:21;98406.44;;;11.04;100.00
19510;BME280;9896;42.486;26.506;2024-01-07T03:04:47;98398.00;;;10.96;100.00
19510;BME280;9896;42.486;26.506;2024-01-07T03:07:13;98400.91;;;10.94;100.00
19510;BME280;9896;42.486;26.506;2024-01-07T03:09:38;98389.94;;;10.96;100.00
19510;BME280;9896;42.486;26.506;2024-01-07T03:12:04;98388.81;;;10.92;100.00
19510;BME280;9896;42.486;26.506;2024-01-07T03:14:30;98395.84;;;10.98;100.00
19510;BME280;9896;42.486;26.506;2024-01-07T03:16:55;98381.91;;;10.96;100.00
19510;BME280;9896;42.486;26.506;2024-01-07T03:19:21;98372.88;;;10.85;100.00
19510;BME280;9896;42.486;26.506;2024-01-07T03:21:48;98399.13;;;10.83;100.00
19510;BME280;9896;42.486;26.506;2024-01-07T03:24:14;98375.41;;;10.75;100.00
19510;BME280;9896;42.486;26.506;2024-01-07T03:26:40;98369.72;;;10.71;100.00
19510;BME280;9896;42.486;26.506;2024-01-07T03:29:05;98370.28;;;10.73;100.00
19510;BME280;9896;42.486;26.506;2024-01-07T03:31:31;98368.09;;;10.70;100.00
19510;BME280;9896;42.486;26.506;2024-01-07T03:33:57;98345.59;;;10.71;100.00
19510;BME280;9896;42.486;26.506;2024-01-07T03:36:23;98345.91;;;10.75;100.00
19510;BME280;9896;42.486;26.506;2024-01-07T03:38:48;98335.75;;;10.77;100.00
19510;BME280;9896;42.486;26.506;2024-01-07T03:41:17;98333.16;;;10.82;100.00
19510;BME280;9896;42.486;26.506;2024-01-07T03:43:44;98342.25;;;10.81;100.00
19510;BME280;9896;42.486;26.506;2024-01-07T03:46:09;98334.28;;;10.86;100.00
19510;BME280;9896;42.486;26.506;2024-01-07T03:48:35;98323.75;;;10.63;100.00
19510;BME280;9896;42.486;26.506;2024-01-07T03:51:00;98324.00;;;10.61;100.00
19510;BME280;9896;42.486;26.506;2024-01-07T03:53:26;98323.84;;;10.51;100.00
19510;BME280;9896;42.486;26.506;2024-01-07T03:55:51;98318.63;;;10.45;100.00
19510;BME280;9896;42.486;26.506;2024-01-07T03:58:17;98314.72;;;10.52;100.00
19510;BME280;9896;42.486;26.506;2024-01-07T04:00:43;98308.91;;;10.55;100.00
19510;BME280;9896;42.486;26.506;2024-01-07T04:03:08;98311.81;;;10.54;100.00
19510;BME280;9896;42.486;26.506;2024-01-07T04:05:34;98301.09;;;10.54;100.00
19510;BME280;9896;42.486;26.506;2024-01-07T04:08:01;98286.38;;;10.56;100.00
19510;BME280;9896;42.486;26.506;2024-01-07T04:10:27;98285.66;;;10.61;100.00
19510;BME280;9896;42.486;26.506;2024-01-07T04:12:52;98275.13;;;10.54;100.00
19510;BME280;9896;42.486;26.506;2024-01-07T04:15:18;98257.72;;;10.57;100.00
19510;BME280;9896;42.486;26.506;2024-01-07T04:17:44;98262.53;;;10.55;100.00
19510;BME280;9896;42.486;26.506;2024-01-07T04:20:12;98260.91;;;10.54;100.00
19510;BME280;9896;42.486;26.506;2024-01-07T04:22:38;98247.00;;;10.57;100.00
19510;BME280;9896;42.486;26.506;2024-01-07T04:25:04;98240.59;;;10.58;100.00
19510;BME280;9896;42.486;26.506;2024-01-07T04:27:36;98232.03;;;10.61;100.00
19510;BME280;9896;42.486;26.506;2024-01-07T04:30:04;98238.41;;;10.77;100.00
19510;BME280;9896;42.486;26.506;2024-01-07T04:32:30;98247.66;;;10.86;100.00
19510;BME280;9896;42.486;26.506;2024-01-07T04:34:55;98256.63;;;10.75;100.00
19510;BME280;9896;42.486;26.506;2024-01-07T04:37:23;98258.19;;;10.70;100.00
19510;BME280;9896;42.486;26.506;2024-01-07T04:39:49;98261.44;;;10.94;100.00
19510;BME280;9896;42.486;26.506;2024-01-07T04:42:16;98288.69;;;11.25;100.00
19510;BME280;9896;42.486;26.506;2024-01-07T04:44:42;98355.00;;;10.57;100.00
19510;BME280;9896;42.486;26.506;2024-01-07T04:47:27;98340.06;;;10.28;100.00
19510;BME280;9896;42.486;26.506;2024-01-07T04:49:53;98327.00;;;10.32;100.00
19510;BME280;9896;42.486;26.506;2024-01-07T04:52:19;98318.31;;;10.58;100.00
19510;BME280;9896;42.486;26.506;2024-01-07T04:54:44;98349.00;;;10.50;100.00
19510;BME280;9896;42.486;26.506;2024-01-07T04:57:10;98353.78;;;10.48;100.00
19510;BME280;9896;42.486;26.506;2024-01-07T04:59:36;98332.13;;;10.50;100.00
19510;BME280;9896;42.486;26.506;2024-01-07T05:02:01;98341.84;;;10.56;100.00
19510;BME280;9896;42.486;26.506;2024-01-07T05:04:27;98346.75;;;10.59;100.00
19510;BME280;9896;42.486;26.506;2024-01-07T05:06:53;98332.34;;;10.65;100.00
19510;BME280;9896;42.486;26.506;2024-01-07T05:09:18;98328.31;;;10.62;100.00
19510;BME280;9896;42.486;26.506;2024-01-07T05:11:44;98337.16;;;10.63;100.00
19510;BME280;9896;42.486;26.506;2024-01-07T05:14:11;98338.13;;;10.57;100.00
19510;BME280;9896;42.486;26.506;2024-01-07T05:16:37;98335.28;;;10.47;100.00
19510;BME280;9896;42.486;26.506;2024-01-07T05:19:02;98330.06;;;10.40;100.00
19510;BME280;9896;42.486;26.506;2024-01-07T05:21:29;98324.91;;;10.34;100.00
19510;BME280;9896;42.486;26.506;2024-01-07T05:23:54;98312.72;;;10.26;100.00
19510;BME280;9896;42.486;26.506;2024-01-07T05:26:20;98292.75;;;10.17;100.00
19510;BME280;9896;42.486;26.506;2024-01-07T05:28:46;98254.81;;;10.08;100.00
19510;BME280;9896;42.486;26.506;2024-01-07T05:31:16;98266.72;;;10.01;100.00
19510;BME280;9896;42.486;26.506;2024-01-07T05:33:45;98239.88;;;9.96;100.00
19510;BME280;9896;42.486;26.506;2024-01-07T05:36:14;98197.53;;;9.93;100.00
19510;BME280;9896;42.486;26.506;2024-01-07T05:38:41;98191.66;;;9.96;100.00
19510;BME280;9896;42.486;26.506;2024-01-07T05:41:07;98222.53;;;9.98;100.00
19510;BME280;9896;42.486;26.506;2024-01-07T05:43:33;98246.63;;;9.98;100.00
19510;BME280;9896;42.486;26.506;2024-01-07T05:45:58;98260.00;;;9.98;100.00
19510;BME280;9896;42.486;26.506;2024-01-07T05:48:24;98265.91;;;10.00;100.00
19510;BME280;9896;42.486;26.506;2024-01-07T05:50:50;98273.03;;;9.95;100.00
19510;BME280;9896;42.486;26.506;2024-01-07T05:53:17;98249.28;;;9.98;100.00
19510;BME280;9896;42.486;26.506;2024-01-07T05:55:42;98258.28;;;9.92;100.00
19510;BME280;9896;42.486;26.506;2024-01-07T05:58:08;98252.94;;;9.92;100.00
19510;BME280;9896;42.486;26.506;2024-01-07T06:00:34;98256.66;;;9.91;100.00
19510;BME280;9896;42.486;26.506;2024-01-07T06:02:59;98251.16;;;9.98;100.00
19510;BME280;9896;42.486;26.506;2024-01-07T06:05:26;98272.25;;;9.94;100.00
19510;BME280;9896;42.486;26.506;2024-01-07T06:07:51;98281.88;;;9.95;100.00
19510;BME280;9896;42.486;26.506;2024-01-07T06:10:17;98272.47;;;9.93;100.00
19510;BME280;9896;42.486;26.506;2024-01-07T06:12:42;98275.97;;;9.93;100.00
19510;BME280;9896;42.486;26.506;2024-01-07T06:15:08;98272.97;;;9.90;100.00
19510;BME280;9896;42.486;26.506;2024-01-07T06:17:34;98270.75;;;9.87;100.00
19510;BME280;9896;42.486;26.506;2024-01-07T06:20:00;98264.84;;;9.85;100.00
19510;BME280;9896;42.486;26.506;2024-01-07T06:22:25;98263.13;;;9.78;100.00
19510;BME280;9896;42.486;26.506;2024-01-07T06:24:51;98298.88;;;9.72;100.00
19510;BME280;9896;42.486;26.506;2024-01-07T06:27:16;98284.47;;;9.73;100.00
19510;BME280;9896;42.486;26.506;2024-01-07T06:29:42;98281.59;;;9.63;100.00
19510;BME280;9896;42.486;26.506;2024-01-07T06:32:07;98275.41;;;9.63;100.00
19510;BME280;9896;42.486;26.506;2024-01-07T06:34:35;98282.91;;;9.61;100.00
19510;BME280;9896;42.486;26.506;2024-01-07T06:37:01;98286.38;;;9.61;100.00
19510;BME280;9896;42.486;26.506;2024-01-07T06:39:27;98272.91;;;9.56;100.00
19510;BME280;9896;42.486;26.506;2024-01-07T06:41:53;98265.69;;;9.57;100.00
19510;BME280;9896;42.486;26.506;2024-01-07T06:44:18;98255.66;;;9.64;100.00
19510;BME280;9896;42.486;26.506;2024-01-07T06:46:44;98235.06;;;9.64;100.00
19510;BME280;9896;42.486;26.506;2024-01-07T06:49:09;98230.19;;;9.61;100.00
19510;BME280;9896;42.486;26.506;2024-01-07T06:51:35;98224.84;;;9.61;100.00
19510;BME280;9896;42.486;26.506;2024-01-07T06:54:01;98248.91;;;9.61;100.00
19510;BME280;9896;42.486;26.506;2024-01-07T06:56:26;98239.69;;;9.69;100.00
19510;BME280;9896;42.486;26.506;2024-01-07T06:58:52;98232.47;;;9.69;100.00
19510;BME280;9896;42.486;26.506;2024-01-07T07:01:20;98206.25;;;9.71;100.00
19510;BME280;9896;42.486;26.506;2024-01-07T07:03:47;98227.91;;;9.70;100.00
19510;BME280;9896;42.486;26.506;2024-01-07T07:06:12;98247.47;;;9.70;100.00
19510;BME280;9896;42.486;26.506;2024-01-07T07:08:38;98226.41;;;9.74;100.00
19510;BME280;9896;42.486;26.506;2024-01-07T07:11:04;98187.38;;;9.78;100.00
19510;BME280;9896;42.486;26.506;2024-01-07T07:13:30;98201.81;;;9.94;100.00
19510;BME280;9896;42.486;26.506;2024-01-07T07:15:55;98199.31;;;10.20;100.00
19510;BME280;9896;42.486;26.506;2024-01-07T07:18:21;98188.50;;;10.32;100.00
19510;BME280;9896;42.486;26.506;2024-01-07T07:20:47;98184.38;;;10.24;100.00
19510;BME280;9896;42.486;26.506;2024-01-07T07:23:12;98159.53;;;10.29;100.00
19510;BME280;9896;42.486;26.506;2024-01-07T07:25:39;98155.69;;;10.42;100.00
19510;BME280;9896;42.486;26.506;2024-01-07T07:28:04;98159.09;;;10.37;100.00
19510;BME280;9896;42.486;26.506;2024-01-07T07:30:31;98156.13;;;10.34;100.00
19510;BME280;9896;42.486;26.506;2024-01-07T07:32:57;98149.63;;;10.30;100.00
19510;BME280;9896;42.486;26.506;2024-01-07T07:35:22;98149.63;;;10.30;100.00
19510;BME280;9896;42.486;26.506;2024-01-07T07:37:48;98120.59;;;10.21;100.00
19510;BME280;9896;42.486;26.506;2024-01-07T07:40:13;98138.84;;;10.24;100.00
19510;BME280;9896;42.486;26.506;2024-01-07T07:42:39;98136.44;;;10.45;100.00
19510;BME280;9896;42.486;26.506;2024-01-07T07:45:05;98137.81;;;10.69;100.00
19510;BME280;9896;42.486;26.506;2024-01-07T07:47:31;98131.47;;;10.75;100.00
19510;BME280;9896;42.486;26.506;2024-01-07T07:49:57;98142.72;;;10.77;100.00
19510;BME280;9896;42.486;26.506;2024-01-07T07:52:23;98154.63;;;10.86;100.00
19510;BME280;9896;42.486;26.506;2024-01-07T07:54:52;98142.34;;;10.90;100.00
19510;BME280;9896;42.486;26.506;2024-01-07T07:57:17;98142.13;;;10.97;100.00
19510;BME280;9896;42.486;26.506;2024-01-07T07:59:45;98145.78;;;10.86;100.00
19510;BME280;9896;42.486;26.506;2024-01-07T08:02:10;98147.50;;;10.97;100.00
19510;BME280;9896;42.486;26.506;2024-01-07T08:04:36;98146.59;;;11.13;100.00
19510;BME280;9896;42.486;26.506;2024-01-07T08:07:02;98154.81;;;11.28;100.00
19510;BME280;9896;42.486;26.506;2024-01-07T08:09:27;98159.09;;;11.29;100.00
19510;BME280;9896;42.486;26.506;2024-01-07T08:11:53;98159.97;;;11.35;100.00
19510;BME280;9896;42.486;26.506;2024-01-07T08:14:19;98177.19;;;11.39;100.00
19510;BME280;9896;42.486;26.506;2024-01-07T08:16:44;98127.47;;;11.31;100.00
19510;BME280;9896;42.486;26.506;2024-01-07T08:19:10;98182.69;;;11.54;100.00
19510;BME280;9896;42.486;26.506;2024-01-07T08:21:36;98197.25;;;11.85;100.00
19510;BME280;9896;42.486;26.506;2024-01-07T08:24:01;98181.13;;;11.85;100.00
19510;BME280;9896;42.486;26.506;2024-01-07T08:26:29;98200.47;;;11.87;100.00
19510;BME280;9896;42.486;26.506;2024-01-07T08:28:54;98167.91;;;12.10;100.00
19510;BME280;9896;42.486;26.506;2024-01-07T08:31:20;98180.88;;;12.23;100.00
19510;BME280;9896;42.486;26.506;2024-01-07T08:33:46;98164.09;;;12.48;100.00
19510;BME280;9896;42.486;26.506;2024-01-07T08:36:11;98160.16;;;12.66;100.00
19510;BME280;9896;42.486;26.506;2024-01-07T08:38:37;98154.47;;;12.57;100.00
19510;BME280;9896;42.486;26.506;2024-01-07T08:41:03;98146.84;;;13.01;100.00
19510;BME280;9896;42.486;26.506;2024-01-07T08:43:28;98167.47;;;12.75;100.00
19510;BME280;9896;42.486;26.506;2024-01-07T08:45:54;98126.03;;;12.76;100.00
19510;BME280;9896;42.486;26.506;2024-01-07T08:48:20;98103.19;;;12.79;100.00
19510;BME280;9896;42.486;26.506;2024-01-07T08:50:45;98155.69;;;12.96;100.00
19510;BME280;9896;42.486;26.506;2024-01-07T08:53:11;98155.16;;;12.94;100.00
19510;BME280;9896;42.486;26.506;2024-01-07T08:55:37;98147.38;;;13.03;100.00
19510;BME280;9896;42.486;26.506;2024-01-07T08:58:03;98115.13;;;13.08;100.00
19510;BME280;9896;42.486;26.506;2024-01-07T09:00:29;98130.94;;;12.89;100.00
19510;BME280;9896;42.486;26.506;2024-01-07T09:02:56;98147.13;;;13.10;100.00
19510;BME280;9896;42.486;26.506;2024-01-07T09:05:23;98133.06;;;12.92;100.00
19510;BME280;9896;42.486;26.506;2024-01-07T09:07:50;98132.59;;;13.05;100.00
19510;BME280;9896;42.486;26.506;2024-01-07T09:10:15;98083.63;;;13.03;100.00
19510;BME280;9896;42.486;26.506;2024-01-07T09:12:41;98061.06;;;13.20;100.00
19510;BME280;9896;42.486;26.506;2024-01-07T09:15:07;98135.38;;;13.46;100.00
19510;BME280;9896;42.486;26.506;2024-01-07T09:17:35;98095.78;;;13.26;100.00
19510;BME280;9896;42.486;26.506;2024-01-07T09:20:02;98096.63;;;13.52;100.00
19510;BME280;9896;42.486;26.506;2024-01-07T09:22:30;98091.22;;;13.37;100.00
19510;BME280;9896;42.486;26.506;2024-01-07T09:24:55;98020.69;;;13.35;100.00
19510;BME280;9896;42.486;26.506;2024-01-07T09:27:21;98074.00;;;13.23;100.00
19510;BME280;9896;42.486;26.506;2024-01-07T09:29:47;98082.88;;;13.23;100.00
19510;BME280;9896;42.486;26.506;2024-01-07T09:32:12;98097.41;;;13.37;100.00
19510;BME280;9896;42.486;26.506;2024-01-07T09:34:38;98081.00;;;13.24;100.00
19510;BME280;9896;42.486;26.506;2024-01-07T09:37:04;98096.03;;;13.25;100.00
19510;BME280;9896;42.486;26.506;2024-01-07T09:39:29;98078.31;;;13.64;100.00
19510;BME280;9896;42.486;26.506;2024-01-07T09:41:55;98082.34;;;13.62;100.00
19510;BME280;9896;42.486;26.506;2024-01-07T09:44:20;98064.06;;;13.48;100.00
19510;BME280;9896;42.486;26.506;2024-01-07T09:46:46;98058.91;;;13.67;100.00
19510;BME280;9896;42.486;26.506;2024-01-07T09:49:16;98073.72;;;13.70;100.00
19510;BME280;9896;42.486;26.506;2024-01-07T09:51:45;97974.16;;;13.24;100.00
19510;BME280;9896;42.486;26.506;2024-01-07T09:54:13;98057.81;;;13.78;100.00
19510;BME280;9896;42.486;26.506;2024-01-07T09:56:50;98056.78;;;13.69;100.00
19510;BME280;9896;42.486;26.506;2024-01-07T09:59:20;98035.97;;;13.95;100.00
19510;BME280;9896;42.486;26.506;2024-01-07T10:01:47;98031.31;;;14.11;100.00
19510;BME280;9896;42.486;26.506;2024-01-07T10:04:13;98062.84;;;14.10;100.00
19510;BME280;9896;42.486;26.506;2024-01-07T10:06:38;98006.63;;;14.63;100.00
19510;BME280;9896;42.486;26.506;2024-01-07T10:09:06;98004.84;;;14.33;100.00
19510;BME280;9896;42.486;26.506;2024-01-07T10:11:32;98020.50;;;14.26;100.00
19510;BME280;9896;42.486;26.506;2024-01-07T10:13:58;98020.53;;;14.11;100.00
19510;BME280;9896;42.486;26.506;2024-01-07T10:16:23;98007.63;;;14.08;100.00
19510;BME280;9896;42.486;26.506;2024-01-07T10:18:49;98023.56;;;14.68;100.00
19510;BME280;9896;42.486;26.506;2024-01-07T10:21:18;98017.25;;;14.34;100.00
19510;BME280;9896;42.486;26.506;2024-01-07T10:23:44;97990.56;;;14.22;100.00
19510;BME280;9896;42.486;26.506;2024-01-07T10:26:09;98004.03;;;14.43;100.00
19510;BME280;9896;42.486;26.506;2024-01-07T10:28:36;98000.19;;;14.54;100.00
19510;BME280;9896;42.486;26.506;2024-01-07T10:31:03;97981.81;;;14.56;100.00
19510;BME280;9896;42.486;26.506;2024-01-07T10:33:32;97986.13;;;14.57;100.00
19510;BME280;9896;42.486;26.506;2024-01-07T10:36:02;98017.69;;;14.56;100.00
19510;BME280;9896;42.486;26.506;2024-01-07T10:38:31;97998.19;;;14.10;100.00
19510;BME280;9896;42.486;26.506;2024-01-07T10:40:59;98007.28;;;14.29;100.00
19510;BME280;9896;42.486;26.506;2024-01-07T10:43:29;98006.28;;;14.69;100.00
19510;BME280;9896;42.486;26.506;2024-01-07T10:45:55;97998.41;;;14.78;100.00
19510;BME280;9896;42.486;26.506;2024-01-07T10:48:21;97999.00;;;14.75;100.00
19510;BME280;9896;42.486;26.506;2024-01-07T10:50:52;98006.44;;;15.27;100.00
19510;BME280;9896;42.486;26.506;2024-01-07T10:53:21;98006.03;;;15.44;100.00
19510;BME280;9896;42.486;26.506;2024-01-07T10:55:54;98005.69;;;15.16;100.00
19510;BME280;9896;42.486;26.506;2024-01-07T10:58:23;97978.75;;;15.11;100.00
19510;BME280;9896;42.486;26.506;2024-01-07T11:00:49;98008.47;;;15.06;100.00
19510;BME280;9896;42.486;26.506;2024-01-07T11:04:00;98011.34;;;14.81;100.00
19510;BME280;9896;42.486;26.506;2024-01-07T11:06:57;98005.75;;;15.11;100.00
19510;BME280;9896;42.486;26.506;2024-01-07T11:12:14;97988.69;;;14.82;100.00
19510;BME280;9896;42.486;26.506;2024-01-07T11:14:41;97982.88;;;14.60;100.00
19510;BME280;9896;42.486;26.506;2024-01-07T11:17:11;97994.97;;;14.67;100.00
19510;BME280;9896;42.486;26.506;2024-01-07T11:19:49;97939.72;;;14.60;100.00
19510;BME280;9896;42.486;26.506;2024-01-07T11:22:26;97961.41;;;14.45;100.00
19510;BME280;9896;42.486;26.506;2024-01-07T11:24:59;97968.81;;;14.14;100.00
19510;BME280;9896;42.486;26.506;2024-01-07T11:27:28;97981.75;;;14.12;100.00
19510;BME280;9896;42.486;26.506;2024-01-07T11:30:07;97981.00;;;13.91;100.00
19510;BME280;9896;42.486;26.506;2024-01-07T11:32:45;97967.22;;;14.03;100.00
19510;BME280;9896;42.486;26.506;2024-01-07T11:35:14;97979.25;;;14.30;100.00
19510;BME280;9896;42.486;26.506;2024-01-07T11:37:41;97984.44;;;14.12;100.00
19510;BME280;9896;42.486;26.506;2024-01-07T11:40:08;97966.47;;;14.51;100.00
19510;BME280;9896;42.486;26.506;2024-01-07T11:42:33;97964.97;;;14.25;100.00
19510;BME280;9896;42.486;26.506;2024-01-07T11:44:59;97964.56;;;14.57;100.00
19510;BME280;9896;42.486;26.506;2024-01-07T11:47:25;97943.41;;;14.74;100.00
19510;BME280;9896;42.486;26.506;2024-01-07T11:49:54;97970.38;;;14.79;100.00
19510;BME280;9896;42.486;26.506;2024-01-07T11:52:20;97969.88;;;15.06;100.00
19510;BME280;9896;42.486;26.506;2024-01-07T11:54:47;97965.19;;;15.16;100.00
19510;BME280;9896;42.486;26.506;2024-01-07T11:57:13;97970.91;;;15.15;100.00
19510;BME280;9896;42.486;26.506;2024-01-07T11:59:39;97962.72;;;15.49;100.00
19510;BME280;9896;42.486;26.506;2024-01-07T12:02:04;97976.19;;;15.59;100.00
19510;BME280;9896;42.486;26.506;2024-01-07T12:04:31;97962.25;;;15.13;100.00
19510;BME280;9896;42.486;26.506;2024-01-07T12:06:57;97957.03;;;15.26;100.00
19510;BME280;9896;42.486;26.506;2024-01-07T12:09:24;97959.06;;;15.11;100.00
19510;BME280;9896;42.486;26.506;2024-01-07T12:11:50;97958.06;;;14.97;100.00
19510;BME280;9896;42.486;26.506;2024-01-07T12:14:16;97954.34;;;14.49;100.00
19510;BME280;9896;42.486;26.506;2024-01-07T12:16:45;97958.31;;;14.66;100.00
19510;BME280;9896;42.486;26.506;2024-01-07T12:19:12;97929.81;;;14.50;100.00
19510;BME280;9896;42.486;26.506;2024-01-07T12:21:37;97949.69;;;14.59;100.00
19510;BME280;9896;42.486;26.506;2024-01-07T12:24:04;97939.97;;;14.63;100.00
19510;BME280;9896;42.486;26.506;2024-01-07T12:26:30;97936.53;;;14.92;100.00
19510;BME280;9896;42.486;26.506;2024-01-07T12:28:58;97933.09;;;15.44;100.00
19510;BME280;9896;42.486;26.506;2024-01-07T12:31:33;97926.41;;;15.89;100.00
19510;BME280;9896;42.486;26.506;2024-01-07T12:33:59;97923.09;;;15.73;100.00
19510;BME280;9896;42.486;26.506;2024-01-07T12:36:25;97907.34;;;15.56;100.00
19510;BME280;9896;42.486;26.506;2024-01-07T12:38:52;97913.34;;;15.19;100.00
19510;BME280;9896;42.486;26.506;2024-01-07T12:41:20;97913.72;;;15.08;100.00
19510;BME280;9896;42.486;26.506;2024-01-07T12:43:46;97905.28;;;15.43;100.00
19510;BME280;9896;42.486;26.506;2024-01-07T12:46:12;97912.78;;;15.22;100.00
19510;BME280;9896;42.486;26.506;2024-01-07T12:48:38;97910.84;;;15.28;100.00
19510;BME280;9896;42.486;26.506;2024-01-07T12:51:03;97910.41;;;15.16;100.00